LiveATC.Net - Listen to live air traffic control over the Internet!


ICAO: KORH  IATA: ORH   Airport: Worcester Regional Airport
City: Worcester   State/Province: Massachusetts
Country: United States   Continent: North America
KORH METAR Weather: KORH 230454Z 27015G27KT 2 1/2SM -SN BKN024 OVC030 01/M02 A2923 RMK AO2 PK WND 27031/0424 SNB34 SLP906 P0000 T00061022 400280006
KORH Flight Activity (FlightAware)
KORH Airport Info   (iFlightPlanner)
KORH VFR Sectional Chart   (iFlightPlanner) 
KORH IFR Low Chart   (iFlightPlanner) 

FSS (Central MA)
Feed Status: UP   Listeners: 0
Listen in your browser - HTML5 player (in browser, HTML5)
Click here to listen with your own player (launches your MP3 player)
FSS (Central MA) Audio Archives
FacilityFrequency
Flight Service122.200

NOTICE

Unauthorized use prohibited. See LiveATC.net Terms of Service


Find LiveATC Audio Streams


Airport/ARTCC Code

Frequency Search
(e.g., 124.400, 128.75)
Site-wide search
 


Browse LiveATC Feeds
Top 50 LiveATC Feeds
LiveATC Feed Map
Bad Weather Areas

LiveATC FAQ
Offer LiveATC feed
Contact LiveATC.net
Press Inquiries

LiveATC on iPhone
LiveATC on Android

Windows Phone
Windows 8/10

LiveATC Mobile
(Mobile browser)

ATC Audio Archives
Interesting Recordings

LiveATC Forums


Home Page
About LiveATC.net
Make a Donation
Terms of Use
Privacy Policy

Canadian Air Freqs

AIRMETs/SIGMETs

FAA Airport Status
Nat'l Airspace Status
Arrival Demand Charts


Server Software By:
Icecast.org
Liquidsoap